Flight Track Log - Related Links

Times and Time Zones

All times are in EDT time to prevent confusion due to time zone crossing. See the N329DM flight status page for this flight to view local times or setup timezone preferences in your user account.

Time Position Orientation Groundspeed Altitude Reporting Facility
EDT Latitude Longitude Course Direction KTS MPH feet Rate Location/Type
Sat 12:20:00 PM 32.4309 -88.5010 66° East  Level FlightAware Approximate
Sat 12:21:00 PM 32.4471 -88.4577 66° East  Level FlightAware Approximate
Sat 12:22:00 PM 32.4653 -88.4156 62° Northeast  Level FlightAware Approximate
Sat 12:23:00 PM 32.4840 -88.3737 62° Northeast  Level FlightAware Approximate
Sat 12:24:00 PM 32.5026 -88.3318 62° Northeast  Level FlightAware Approximate
Sat 12:25:00 PM 32.5213 -88.2899 62° Northeast  Level FlightAware Approximate
Sat 12:26:00 PM 32.5399 -88.2480 62° Northeast  Level FlightAware Approximate
Sat 12:27:00 PM 32.5585 -88.2061 62° Northeast  Level FlightAware Approximate
Sat 12:28:00 PM 32.5771 -88.1641 62° Northeast  Level FlightAware Approximate
Sat 12:29:00 PM 32.5957 -88.1222 62° Northeast  Level FlightAware Approximate
Sat 12:30:00 PM 32.6144 -88.0803 62° Northeast  Level FlightAware Approximate
Sat 12:30:40 PM 32.5858 -88.2147 62° Northeast 151 174 7,000  Level Atlanta Center
Sat 12:31:00 PM 32.6331 -88.0384 62° Northeast  Level FlightAware Approximate
Sat 12:31:40 PM 32.6042 -88.1736 62° Northeast 146 168 7,000  Level Atlanta Center
Sat 12:32:00 PM 32.6517 -87.9964 62° Northeast  Level FlightAware Approximate
Sat 12:32:40 PM 32.6222 -88.1303 64° Northeast 151 174 7,000  Level Atlanta Center
Sat 12:33:00 PM 32.6704 -87.9545 62° Northeast  Level FlightAware Approximate
Sat 12:33:40 PM 32.6425 -88.0842 62° Northeast 151 174 6,900  Level Atlanta Center
Sat 12:34:00 PM 32.6890 -87.9125 62° Northeast  Level FlightAware Approximate
Sat 12:34:40 PM 32.6628 -88.0383 62° Northeast 151 174 6,900  Level Atlanta Center
Sat 12:35:00 PM 32.7076 -87.8705 62° Northeast  Level FlightAware Approximate
Sat 12:35:40 PM 32.6811 -87.9847 68° East 160 184 6,900  Level Atlanta Center
Sat 12:36:40 PM 32.7014 -87.9364 63° Northeast 165 190 6,900  Level Atlanta Center
Sat 12:37:40 PM 32.7197 -87.8928 63° Northeast 159 183 6,900 50 Level Atlanta Center
Sat 12:38:40 PM 32.7378 -87.8492 64° Northeast 154 177 7,000 50 Climbing Atlanta Center
Sat 12:39:40 PM 32.7558 -87.8031 65° Northeast 154 177 7,000  Level Atlanta Center
Sat 12:40:40 PM 32.7758 -87.7569 63° Northeast 154 177 7,000 50 Level Atlanta Center
Sat 12:41:40 PM 32.7917 -87.7156 66° East 154 177 7,100 50 Climbing Atlanta Center
Sat 12:42:40 PM 32.8119 -87.6719 61° Northeast 154 177 7,100  Level Atlanta Center
Sat 12:43:40 PM 32.8278 -87.6256 68° East 154 177 7,100  Level Atlanta Center
Sat 12:44:40 PM 32.8478 -87.5819 61° Northeast 154 177 7,100 -205 Level Atlanta Center
Sat 12:45:37 PM 32.8658 -87.5406 63° Northeast 155 178 6,700 -458 Descending Atlanta Center
Sat 12:46:38 PM 32.8839 -87.4869 68° East 177 204 6,200 -545 Descending Atlanta Center
Sat 12:47:38 PM 32.9125 -87.4361 56° Northeast 170 196 5,600 -541 Descending Atlanta Center
Sat 12:48:40 PM 32.9389 -87.3925 54° Northeast 159 183 5,100 -261 Descending Atlanta Center
Sat 12:49:33 PM 32.9669 -87.3539 49° Northeast 161 185 5,100  Level Atlanta Center
Sat 12:50:40 PM 32.9992 -87.3206 41° Northeast 151 174 5,100  Level Atlanta Center
Sat 12:51:40 PM 33.0314 -87.2822 45° Northeast 144 166 5,100  Level Atlanta Center
Sat 12:52:40 PM 33.0575 -87.2458 49° Northeast 144 166 5,100  Level Atlanta Center
Sat 12:53:40 PM 33.0856 -87.2147 43° Northeast 139 160 5,100  Level Atlanta Center
Sat 12:54:40 PM 33.1114 -87.1761 51° Northeast 139 160 5,100  Level Atlanta Center
Sat 12:55:49 PM 33.1458 -87.1425 39° Northeast 144 166 5,100  Level Atlanta Center
Sat 12:56:50 PM 33.1694 -87.1061 52° Northeast 146 168 5,100  Level Atlanta Center
Sat 12:57:44 PM 33.1975 -87.0722 45° Northeast 148 170 5,100  Level Atlanta Center
Sat 12:58:45 PM 33.2256 -87.0411 43° Northeast 146 168 5,100  Level Atlanta Center
Sat 12:59:45 PM 33.2536 -87.0022 49° Northeast 147 169 5,100  Level Atlanta Center
Sat 01:00:46 PM 33.2814 -86.9658 48° Northeast 146 168 5,100 -234 Level Atlanta Center
Sat 01:01:53 PM 33.3117 -86.9222 50° Northeast 152 175 4,600 -496 Descending Atlanta Center
Sat 01:02:47 PM 33.3397 -86.8908 43° Northeast 147 169 4,100 -209 Descending Atlanta Center
Sat 01:03:48 PM 33.3689 -86.8919 358° North 113 130 4,200  Climbing Atlanta Center
Sat 01:04:48 PM 33.4042 -86.8956 355° North 131 151 4,100 -55 Descending Atlanta Center
Sat 01:05:37 PM 33.4269 -86.9086 334° Northwest 139 160 4,100  Level Atlanta Center
Sat 01:06:37 PM 33.4017 -86.9128 188° South 139 160 4,100  Level Atlanta Center
Sat 01:07:38 PM 33.3733 -86.8819 138° Southeast 138 159 4,100 -98 Level Atlanta Center
Sat 01:08:39 PM 33.3403 -86.8661 158° South 127 146 3,900 -397 Descending Atlanta Center
Sat 01:09:39 PM 33.3133 -86.8553 161° South 109 125 3,300 -567 Descending Atlanta Center
Sat 01:10:46 PM 33.2781 -86.8417 162° South 103 119 2,700 -516 Descending Atlanta Center
Sat 01:11:47 PM 33.2575 -86.8261 148° Southeast 92 106 2,200 -298 Descending Atlanta Center
Sat 01:12:47 PM 33.2453 -86.8206 159° South 91 105 2,100 -100 Descending Atlanta Center

Login

Don't have an account? Register now (free) for customized features, flight alerts, and more!